Champlain, Virginia
Current Conditions -  °F | °C
As of 3:15 PM on Monday 26 Jan 2015 (Local Time) from KXSA Reporting Station
Overcast Overcast  
Wind Chill: 31°   Ceiling: 500
Heat Index: 39°   Visibility: 7mi
Dew Point: 34°   Wind: 12mph
Humidity: 84%   Direction: 340°NNW
Pressure: 29.64"   Gusts: NA
Location:  38.01°N, 76.99°W
Report Text: KXSA 262015Z AUTO 34010KT 7SM OVC005 04/01 A2964 RMK AO2 T00370012
Loading
Personal Weather Stations






























Interactive Weather Map New forecast layout! Learn more

10-Day Weather Forecast

Advertisements
Track Severe Weather on mobile